Flipper III — FGD2658 — position and weather

sailwx.info

Track history (hours):
 
Tides and Currents Weather Stations Pressure Air Temp Water Temp Dewpoint Dewpoint Depression Visibility Wind Speed Wind Dir Waves Ship Positions

Flipper III

Last reported at 2018-Feb-14 17:18 UTC. Time now 2018-Feb-20 17:49 UTC.
Position N 48°24' W 004°49'.

Length 23 m.

Type: Fishing. MMSI: 227320660.

Date/timePositionNaut miles runAvg speedWind from/ knotsBaromVisibWave heightAir tempDewpointWater temp
2018-Feb-14 17:18N 48°24' W 004°49'3 9.8
2018-Feb-14 16:59N 48°26' W 004°51'5 0.3
2018-Feb-14 02:33N 48°29' W 004°57'1 8.4
2018-Feb-14 02:23N 48°28' W 004°56'4 9.1
2018-Feb-14 01:58N 48°25' W 004°52'5 9.1
2018-Feb-14 01:27N 48°22' W 004°47'1 0.0
2018-Feb-12 20:53N 48°21' W 004°47'6 8.4
2018-Feb-12 20:09N 48°16' W 004°54'2 8.7
2018-Feb-12 19:53N 48°15' W 004°57'8 8.5
2018-Feb-12 18:58N 48°13' W 005°08'4 0.2
2018-Feb-12 03:01N 48°14' W 005°03'0 8.5
2018-Feb-12 02:58N 48°15' W 005°03'4 8.5
2018-Feb-12 02:29N 48°16' W 004°57'4 8.4
2018-Feb-12 01:58N 48°18' W 004°51'4 0.2
2018-Feb-11 04:00N 48°21' W 004°48'3 6.5
2018-Feb-11 03:30N 48°18' W 004°49'4 7.9
2018-Feb-11 02:59N 48°16' W 004°54'0 0.7
2018-Feb-11 02:21N 48°16' W 004°55'3 8.3
2018-Feb-11 01:58N 48°18' W 004°51'4 0.4
2018-Feb-10 16:11N 48°21' W 004°47'2 7.3
2018-Feb-10 15:58N 48°20' W 004°48'4 8.2
2018-Feb-10 15:28N 48°17' W 004°52'5 8.8
2018-Feb-10 14:56N 48°14' W 004°58'5 8.8
2018-Feb-10 14:22N 48°12' W 005°05'3 9.0
2018-Feb-10 13:59N 48°11' W 005°10'3 0.3
2018-Feb-10 03:33N 48°14' W 005°10'2 8.4
2018-Feb-10 03:19N 48°15' W 005°07'6 8.2
2018-Feb-10 02:38N 48°16' W 004°59'2 8.1
2018-Feb-10 02:21N 48°17' W 004°56'3 8.0
2018-Feb-10 02:00N 48°18' W 004°52'2 0.0
2018-Feb-08 01:19N 48°16' W 004°54'3 9.2
2018-Feb-08 01:00N 48°18' W 004°50'14 0.7
2018-Feb-07 03:43N 48°11' W 005°08'4 8.6
2018-Feb-07 03:16N 48°13' W 005°03'1 2.7
2018-Feb-07 02:58N 48°13' W 005°02'4 8.1
2018-Feb-07 02:27N 48°15' W 004°56'4 8.9
2018-Feb-07 01:59N 48°17' W 004°51'5 0.4
2018-Feb-06 14:53N 48°22' W 004°48'3 8.6
2018-Feb-06 14:30N 48°24' W 004°52'5 8.7
2018-Feb-06 13:53N 48°29' W 004°55'3 0.4
2018-Feb-06 06:23N 48°28' W 004°51'4 9.2
2018-Feb-06 05:58N 48°24' W 004°49'9 0.8
2018-Feb-05 17:58N 48°16' W 004°55'7 9.0
2018-Feb-05 17:13N 48°13' W 005°05'2 0.3
2018-Feb-05 09:58N 48°13' W 005°02'9 8.8
2018-Feb-05 08:59N 48°18' W 004°51'  
Track history (hours):
 
Tides and Currents Weather Stations Pressure Air Temp Water Temp Dewpoint Dewpoint Depression Visibility Wind Speed Wind Dir Waves Ship Positions

Flipper III

Last reported at 2018-Feb-14 17:18 UTC. Time now 2018-Feb-20 17:49 UTC.
Position N 48°24' W 004°49'.

Length 23 m.

Type: Fishing. MMSI: 227320660.

Date/timePositionNaut miles runAvg speedWind from/ knotsBaromVisibWave heightAir tempDewpointWater temp
2018-Feb-14 17:18N 48°24' W 004°49'3 9.8
2018-Feb-14 16:59N 48°26' W 004°51'5 0.3
2018-Feb-14 02:33N 48°29' W 004°57'1 8.4
2018-Feb-14 02:23N 48°28' W 004°56'4 9.1
2018-Feb-14 01:58N 48°25' W 004°52'5 9.1
2018-Feb-14 01:27N 48°22' W 004°47'1 0.0
2018-Feb-12 20:53N 48°21' W 004°47'6 8.4
2018-Feb-12 20:09N 48°16' W 004°54'2 8.7
2018-Feb-12 19:53N 48°15' W 004°57'8 8.5
2018-Feb-12 18:58N 48°13' W 005°08'4 0.2
2018-Feb-12 03:01N 48°14' W 005°03'0 8.5
2018-Feb-12 02:58N 48°15' W 005°03'4 8.5
2018-Feb-12 02:29N 48°16' W 004°57'4 8.4
2018-Feb-12 01:58N 48°18' W 004°51'4 0.2
2018-Feb-11 04:00N 48°21' W 004°48'3 6.5
2018-Feb-11 03:30N 48°18' W 004°49'4 7.9
2018-Feb-11 02:59N 48°16' W 004°54'0 0.7
2018-Feb-11 02:21N 48°16' W 004°55'3 8.3
2018-Feb-11 01:58N 48°18' W 004°51'4 0.4
2018-Feb-10 16:11N 48°21' W 004°47'2 7.3
2018-Feb-10 15:58N 48°20' W 004°48'4 8.2
2018-Feb-10 15:28N 48°17' W 004°52'5 8.8
2018-Feb-10 14:56N 48°14' W 004°58'5 8.8
2018-Feb-10 14:22N 48°12' W 005°05'3 9.0
2018-Feb-10 13:59N 48°11' W 005°10'3 0.3
2018-Feb-10 03:33N 48°14' W 005°10'2 8.4
2018-Feb-10 03:19N 48°15' W 005°07'6 8.2
2018-Feb-10 02:38N 48°16' W 004°59'2 8.1
2018-Feb-10 02:21N 48°17' W 004°56'3 8.0
2018-Feb-10 02:00N 48°18' W 004°52'2 0.0
2018-Feb-08 01:19N 48°16' W 004°54'3 9.2
2018-Feb-08 01:00N 48°18' W 004°50'14 0.7
2018-Feb-07 03:43N 48°11' W 005°08'4 8.6
2018-Feb-07 03:16N 48°13' W 005°03'1 2.7
2018-Feb-07 02:58N 48°13' W 005°02'4 8.1
2018-Feb-07 02:27N 48°15' W 004°56'4 8.9
2018-Feb-07 01:59N 48°17' W 004°51'5 0.4
2018-Feb-06 14:53N 48°22' W 004°48'3 8.6
2018-Feb-06 14:30N 48°24' W 004°52'5 8.7
2018-Feb-06 13:53N 48°29' W 004°55'3 0.4
2018-Feb-06 06:23N 48°28' W 004°51'4 9.2
2018-Feb-06 05:58N 48°24' W 004°49'9 0.8
2018-Feb-05 17:58N 48°16' W 004°55'7 9.0
2018-Feb-05 17:13N 48°13' W 005°05'2 0.3
2018-Feb-05 09:58N 48°13' W 005°02'9 8.8
2018-Feb-05 08:59N 48°18' W 004°51'  

Dump ship's entire track history